Terminal Aerodrome Forecast
Issued by NWS Wakefield, VA

Home | Current Version | Previous Version | Text Only | Print | Product List | Glossary On
Versions: 1 2 3 4 5 6 7 8 9 10 11 12 13 14 15 16 17 18 19 20 21 22 23 24 25 26 27 28 29 30 31 32
369
FTUS41 KAKQ 262320
TAFRIC
TAF
KRIC 262320Z 2700/2724 16003KT P6SM SKC
      TEMPO 2707/2711 3SM BR
     FM271300 19007KT P6SM SKC
     FM271700 20012G20KT P6SM SCT050=

USA.gov is the U.S. government's official web portal to all federal, state and local government web resources and services.